Riverton, Wyoming
Current Conditions -  °F | °C
As of 12:53 AM on Monday 24 Nov 2014 (Local Time) from KRIW Reporting Station
Broken Clouds Broken Clouds  
Wind Chill: -9°   Ceiling: 11000
Heat Index: -4°   Visibility: 10mi
Dew Point: -10°   Wind: 9mph
Humidity: 63%   Direction: 240°WSW
Pressure: 29.87"   Gusts: NA
Location:  43.02°N, 108.38°W
Report Text: KRIW 240753Z AUTO 24008KT 10SM BKN110 M04/M10 A2987 RMK AO2 SLP136 T10391100
Loading
Personal Weather Stations






























Interactive Weather Map New forecast layout! Learn more

10-Day Weather Forecast

Advertisements
Track Severe Weather on mobile